sensor_id;sensor_type;location;lat;lon;timestamp;pressure;altitude;pressure_sealevel;temperature;humidity
13235;BME280;6683;48.506;9.050;2023-07-16T00:02:50;97936.84;;;23.52;70.90
13235;BME280;6683;48.506;9.050;2023-07-16T00:05:52;97956.81;;;23.41;71.20
13235;BME280;6683;48.506;9.050;2023-07-16T00:08:54;97956.00;;;23.31;71.30
13235;BME280;6683;48.506;9.050;2023-07-16T00:11:57;97944.72;;;23.19;71.32
13235;BME280;6683;48.506;9.050;2023-07-16T00:15:00;97940.44;;;23.08;71.50
13235;BME280;6683;48.506;9.050;2023-07-16T00:18:03;97925.66;;;23.00;71.82
13235;BME280;6683;48.506;9.050;2023-07-16T00:21:06;97950.97;;;22.94;72.05
13235;BME280;6683;48.506;9.050;2023-07-16T00:24:08;97964.16;;;22.90;72.42
13235;BME280;6683;48.506;9.050;2023-07-16T00:27:10;97968.19;;;22.88;72.78
13235;BME280;6683;48.506;9.050;2023-07-16T00:30:13;97963.06;;;22.86;72.96
13235;BME280;6683;48.506;9.050;2023-07-16T00:33:16;97969.25;;;22.87;73.21
13235;BME280;6683;48.506;9.050;2023-07-16T00:36:18;97978.16;;;22.87;73.39
13235;BME280;6683;48.506;9.050;2023-07-16T00:39:21;97975.19;;;22.89;73.65
13235;BME280;6683;48.506;9.050;2023-07-16T00:42:23;97980.03;;;22.92;73.74
13235;BME280;6683;48.506;9.050;2023-07-16T00:45:26;97981.38;;;22.94;74.29
13235;BME280;6683;48.506;9.050;2023-07-16T00:48:30;97973.31;;;22.94;74.20
13235;BME280;6683;48.506;9.050;2023-07-16T00:51:32;97984.88;;;22.95;74.12
13235;BME280;6683;48.506;9.050;2023-07-16T00:54:35;97975.72;;;22.91;73.86
13235;BME280;6683;48.506;9.050;2023-07-16T00:57:38;97993.75;;;22.85;73.80
13235;BME280;6683;48.506;9.050;2023-07-16T01:00:42;97980.03;;;22.77;73.44
13235;BME280;6683;48.506;9.050;2023-07-16T01:03:46;97976.53;;;22.66;73.31
13235;BME280;6683;48.506;9.050;2023-07-16T01:06:51;97979.78;;;22.58;73.31
13235;BME280;6683;48.506;9.050;2023-07-16T01:09:55;97983.50;;;22.47;73.36
13235;BME280;6683;48.506;9.050;2023-07-16T01:12:58;97989.13;;;22.36;73.26
13235;BME280;6683;48.506;9.050;2023-07-16T01:16:02;97998.25;;;22.24;73.33
13235;BME280;6683;48.506;9.050;2023-07-16T01:19:06;98006.28;;;22.14;73.31
13235;BME280;6683;48.506;9.050;2023-07-16T01:22:27;98007.09;;;22.05;73.36
13235;BME280;6683;48.506;9.050;2023-07-16T01:25:56;98021.28;;;21.95;73.77
13235;BME280;6683;48.506;9.050;2023-07-16T01:29:21;98029.31;;;21.85;73.67
13235;BME280;6683;48.506;9.050;2023-07-16T01:32:29;98006.41;;;21.78;73.73
13235;BME280;6683;48.506;9.050;2023-07-16T01:35:33;98015.25;;;21.73;73.79
13235;BME280;6683;48.506;9.050;2023-07-16T01:38:35;98006.34;;;21.68;73.88
13235;BME280;6683;48.506;9.050;2023-07-16T01:41:37;98019.50;;;21.64;74.15
13235;BME280;6683;48.506;9.050;2023-07-16T01:44:41;98010.34;;;21.60;74.00
13235;BME280;6683;48.506;9.050;2023-07-16T01:47:52;98009.53;;;21.55;74.30
13235;BME280;6683;48.506;9.050;2023-07-16T01:51:01;98008.97;;;21.53;74.32
13235;BME280;6683;48.506;9.050;2023-07-16T01:54:03;97994.19;;;21.50;74.27
13235;BME280;6683;48.506;9.050;2023-07-16T01:57:06;97990.94;;;21.48;74.47
13235;BME280;6683;48.506;9.050;2023-07-16T02:00:11;97984.22;;;21.45;74.60
13235;BME280;6683;48.506;9.050;2023-07-16T02:03:13;97976.44;;;21.44;74.39
13235;BME280;6683;48.506;9.050;2023-07-16T02:06:16;97989.03;;;21.43;74.52
13235;BME280;6683;48.506;9.050;2023-07-16T02:09:18;97994.69;;;21.42;74.84
13235;BME280;6683;48.506;9.050;2023-07-16T02:12:20;97990.63;;;21.39;74.85
13235;BME280;6683;48.506;9.050;2023-07-16T02:15:24;97992.50;;;21.39;74.66
13235;BME280;6683;48.506;9.050;2023-07-16T02:18:27;97973.16;;;21.37;74.77
13235;BME280;6683;48.506;9.050;2023-07-16T02:21:29;98008.03;;;21.32;74.90
13235;BME280;6683;48.506;9.050;2023-07-16T02:24:31;98009.09;;;21.31;74.93
13235;BME280;6683;48.506;9.050;2023-07-16T02:27:33;98015.81;;;21.28;74.98
13235;BME280;6683;48.506;9.050;2023-07-16T02:30:37;98016.06;;;21.27;74.96
13235;BME280;6683;48.506;9.050;2023-07-16T02:33:39;98007.47;;;21.25;75.06
13235;BME280;6683;48.506;9.050;2023-07-16T02:36:41;98025.44;;;21.24;75.00
13235;BME280;6683;48.506;9.050;2023-07-16T02:39:45;98034.56;;;21.23;75.16
13235;BME280;6683;48.506;9.050;2023-07-16T02:42:48;98041.81;;;21.23;75.02
13235;BME280;6683;48.506;9.050;2023-07-16T02:45:52;98046.38;;;21.22;75.27
13235;BME280;6683;48.506;9.050;2023-07-16T02:48:55;98032.13;;;21.22;75.34
13235;BME280;6683;48.506;9.050;2023-07-16T02:51:57;98037.50;;;21.22;75.42
13235;BME280;6683;48.506;9.050;2023-07-16T02:54:59;98062.47;;;21.22;75.48
13235;BME280;6683;48.506;9.050;2023-07-16T02:58:02;98044.75;;;21.21;75.39
13235;BME280;6683;48.506;9.050;2023-07-16T03:01:06;98049.59;;;21.19;75.42
13235;BME280;6683;48.506;9.050;2023-07-16T03:04:08;98041.53;;;21.19;75.41
13235;BME280;6683;48.506;9.050;2023-07-16T03:07:11;98050.63;;;21.18;75.22
13235;BME280;6683;48.506;9.050;2023-07-16T03:10:13;98068.63;;;21.18;75.39
13235;BME280;6683;48.506;9.050;2023-07-16T03:13:16;98087.66;;;21.16;75.64
13235;BME280;6683;48.506;9.050;2023-07-16T03:16:19;98098.41;;;21.16;75.71
13235;BME280;6683;48.506;9.050;2023-07-16T03:19:22;98082.81;;;21.13;75.71
13235;BME280;6683;48.506;9.050;2023-07-16T03:22:24;98087.38;;;21.13;75.63
13235;BME280;6683;48.506;9.050;2023-07-16T03:25:27;98081.47;;;21.11;75.32
13235;BME280;6683;48.506;9.050;2023-07-16T03:28:29;98090.56;;;21.10;75.36
13235;BME280;6683;48.506;9.050;2023-07-16T03:31:32;98091.09;;;21.07;75.43
13235;BME280;6683;48.506;9.050;2023-07-16T03:34:35;98100.69;;;21.03;75.11
13235;BME280;6683;48.506;9.050;2023-07-16T03:37:37;98112.19;;;20.98;75.44
13235;BME280;6683;48.506;9.050;2023-07-16T03:40:42;98136.00;;;20.95;75.25
13235;BME280;6683;48.506;9.050;2023-07-16T03:43:46;98129.53;;;20.91;75.14
13235;BME280;6683;48.506;9.050;2023-07-16T03:46:50;98142.09;;;20.85;75.19
13235;BME280;6683;48.506;9.050;2023-07-16T03:49:52;98157.34;;;20.80;75.30
13235;BME280;6683;48.506;9.050;2023-07-16T03:52:54;98150.88;;;20.76;75.13
13235;BME280;6683;48.506;9.050;2023-07-16T03:55:56;98137.41;;;20.70;75.13
13235;BME280;6683;48.506;9.050;2023-07-16T03:58:59;98115.06;;;20.65;75.05
13235;BME280;6683;48.506;9.050;2023-07-16T04:02:02;98102.41;;;20.60;75.05
13235;BME280;6683;48.506;9.050;2023-07-16T04:05:06;98128.91;;;20.57;75.06
13235;BME280;6683;48.506;9.050;2023-07-16T04:08:09;98126.19;;;20.52;74.97
13235;BME280;6683;48.506;9.050;2023-07-16T04:11:11;98133.69;;;20.50;75.14
13235;BME280;6683;48.506;9.050;2023-07-16T04:14:14;98167.16;;;20.47;75.25
13235;BME280;6683;48.506;9.050;2023-07-16T04:17:17;98160.69;;;20.43;74.96
13235;BME280;6683;48.506;9.050;2023-07-16T04:20:19;98148.84;;;20.39;74.99
13235;BME280;6683;48.506;9.050;2023-07-16T04:23:22;98169.97;;;20.36;75.00
13235;BME280;6683;48.506;9.050;2023-07-16T04:26:24;98183.31;;;20.31;75.08
13235;BME280;6683;48.506;9.050;2023-07-16T04:29:27;98194.53;;;20.28;75.12
13235;BME280;6683;48.506;9.050;2023-07-16T04:32:30;98185.91;;;20.26;75.29
13235;BME280;6683;48.506;9.050;2023-07-16T04:35:33;98185.34;;;20.24;75.14
13235;BME280;6683;48.506;9.050;2023-07-16T04:38:36;98185.59;;;20.22;75.44
13235;BME280;6683;48.506;9.050;2023-07-16T04:41:38;98186.69;;;20.21;75.31
13235;BME280;6683;48.506;9.050;2023-07-16T04:44:40;98203.00;;;20.20;75.27
13235;BME280;6683;48.506;9.050;2023-07-16T04:47:44;98201.34;;;20.19;75.57
13235;BME280;6683;48.506;9.050;2023-07-16T04:50:47;98212.91;;;20.19;75.63
13235;BME280;6683;48.506;9.050;2023-07-16T04:53:49;98194.72;;;20.21;75.67
13235;BME280;6683;48.506;9.050;2023-07-16T04:56:52;98218.59;;;20.23;75.75
13235;BME280;6683;48.506;9.050;2023-07-16T04:59:54;98219.16;;;20.25;75.96
13235;BME280;6683;48.506;9.050;2023-07-16T05:02:58;98217.28;;;20.25;75.91
13235;BME280;6683;48.506;9.050;2023-07-16T05:06:01;98213.28;;;20.28;75.93
13235;BME280;6683;48.506;9.050;2023-07-16T05:09:03;98214.66;;;20.30;75.80
13235;BME280;6683;48.506;9.050;2023-07-16T05:12:07;98211.41;;;20.28;75.47
13235;BME280;6683;48.506;9.050;2023-07-16T05:15:10;98202.34;;;20.29;75.52
13235;BME280;6683;48.506;9.050;2023-07-16T05:18:15;98199.88;;;20.28;75.54
13235;BME280;6683;48.506;9.050;2023-07-16T05:21:18;98210.59;;;20.28;75.55
13235;BME280;6683;48.506;9.050;2023-07-16T05:24:20;98205.25;;;20.28;75.55
13235;BME280;6683;48.506;9.050;2023-07-16T05:27:22;98211.41;;;20.28;75.63
13235;BME280;6683;48.506;9.050;2023-07-16T05:30:25;98232.13;;;20.33;75.88
13235;BME280;6683;48.506;9.050;2023-07-16T05:33:29;98230.56;;;20.37;75.99
13235;BME280;6683;48.506;9.050;2023-07-16T05:36:31;98231.44;;;20.42;76.11
13235;BME280;6683;48.506;9.050;2023-07-16T05:39:33;98226.16;;;20.47;75.94
13235;BME280;6683;48.506;9.050;2023-07-16T05:42:36;98218.41;;;20.51;75.92
13235;BME280;6683;48.506;9.050;2023-07-16T05:45:38;98205.34;;;20.54;76.03
13235;BME280;6683;48.506;9.050;2023-07-16T05:48:42;98197.59;;;20.58;76.04
13235;BME280;6683;48.506;9.050;2023-07-16T05:51:44;98212.63;;;20.59;75.46
13235;BME280;6683;48.506;9.050;2023-07-16T05:54:47;98222.56;;;20.58;75.48
13235;BME280;6683;48.506;9.050;2023-07-16T05:57:50;98229.78;;;20.58;75.30
13235;BME280;6683;48.506;9.050;2023-07-16T06:00:52;98230.28;;;20.55;75.26
13235;BME280;6683;48.506;9.050;2023-07-16T06:03:56;98240.75;;;20.56;75.45
13235;BME280;6683;48.506;9.050;2023-07-16T06:06:58;98239.94;;;20.56;75.61
13235;BME280;6683;48.506;9.050;2023-07-16T06:10:01;98243.44;;;20.56;75.62
13235;BME280;6683;48.506;9.050;2023-07-16T06:13:03;98235.63;;;20.55;75.59
13235;BME280;6683;48.506;9.050;2023-07-16T06:16:10;98237.53;;;20.54;75.41
13235;BME280;6683;48.506;9.050;2023-07-16T06:19:15;98229.69;;;20.53;75.52
13235;BME280;6683;48.506;9.050;2023-07-16T06:22:18;98230.28;;;20.55;75.45
13235;BME280;6683;48.506;9.050;2023-07-16T06:25:20;98222.78;;;20.57;75.21
13235;BME280;6683;48.506;9.050;2023-07-16T06:28:23;98220.63;;;20.54;75.13
13235;BME280;6683;48.506;9.050;2023-07-16T06:31:26;98226.25;;;20.52;75.11
13235;BME280;6683;48.506;9.050;2023-07-16T06:34:30;98226.78;;;20.54;75.36
13235;BME280;6683;48.506;9.050;2023-07-16T06:37:32;98221.47;;;20.59;75.44
13235;BME280;6683;48.506;9.050;2023-07-16T06:40:36;98236.56;;;20.65;75.30
13235;BME280;6683;48.506;9.050;2023-07-16T06:43:40;98252.22;;;20.73;75.58
13235;BME280;6683;48.506;9.050;2023-07-16T06:46:42;98263.34;;;20.82;75.52
13235;BME280;6683;48.506;9.050;2023-07-16T06:49:47;98260.72;;;20.87;75.54
13235;BME280;6683;48.506;9.050;2023-07-16T06:52:49;98264.25;;;20.93;75.16
13235;BME280;6683;48.506;9.050;2023-07-16T06:55:52;98253.91;;;21.01;75.36
13235;BME280;6683;48.506;9.050;2023-07-16T06:58:54;98249.22;;;21.13;75.33
13235;BME280;6683;48.506;9.050;2023-07-16T07:01:57;98241.34;;;21.28;75.78
13235;BME280;6683;48.506;9.050;2023-07-16T07:05:00;98240.41;;;21.44;75.49
13235;BME280;6683;48.506;9.050;2023-07-16T07:08:03;98237.03;;;21.59;75.39
13235;BME280;6683;48.506;9.050;2023-07-16T07:11:05;98228.56;;;21.72;75.55
13235;BME280;6683;48.506;9.050;2023-07-16T07:14:07;98247.25;;;21.84;74.97
13235;BME280;6683;48.506;9.050;2023-07-16T07:17:09;98246.25;;;21.95;74.90
13235;BME280;6683;48.506;9.050;2023-07-16T07:20:15;98239.59;;;22.07;75.51
13235;BME280;6683;48.506;9.050;2023-07-16T07:23:17;98244.03;;;22.23;74.98
13235;BME280;6683;48.506;9.050;2023-07-16T07:26:19;98239.81;;;22.38;75.32
13235;BME280;6683;48.506;9.050;2023-07-16T07:29:22;98246.06;;;22.53;75.00
13235;BME280;6683;48.506;9.050;2023-07-16T07:32:24;98234.03;;;22.66;74.89
13235;BME280;6683;48.506;9.050;2023-07-16T07:35:29;98253.22;;;22.79;74.63
13235;BME280;6683;48.506;9.050;2023-07-16T07:38:33;98258.38;;;22.91;73.67
13235;BME280;6683;48.506;9.050;2023-07-16T07:41:35;98261.63;;;23.03;73.53
13235;BME280;6683;48.506;9.050;2023-07-16T07:44:38;98261.97;;;23.17;72.21
13235;BME280;6683;48.506;9.050;2023-07-16T07:47:41;98256.84;;;23.15;71.48
13235;BME280;6683;48.506;9.050;2023-07-16T07:50:46;98252.00;;;23.17;71.61
13235;BME280;6683;48.506;9.050;2023-07-16T07:53:49;98255.53;;;23.28;71.24
13235;BME280;6683;48.506;9.050;2023-07-16T07:56:51;98248.56;;;23.37;70.99
13235;BME280;6683;48.506;9.050;2023-07-16T07:59:54;98255.31;;;23.39;70.97
13235;BME280;6683;48.506;9.050;2023-07-16T08:02:58;98249.91;;;23.49;71.38
13235;BME280;6683;48.506;9.050;2023-07-16T08:06:01;98264.75;;;23.62;71.25
13235;BME280;6683;48.506;9.050;2023-07-16T08:09:04;98265.56;;;23.72;71.23
13235;BME280;6683;48.506;9.050;2023-07-16T08:12:07;98256.16;;;23.80;70.89
13235;BME280;6683;48.506;9.050;2023-07-16T08:15:11;98250.22;;;23.88;70.35
13235;BME280;6683;48.506;9.050;2023-07-16T08:18:15;98245.41;;;24.05;70.77
13235;BME280;6683;48.506;9.050;2023-07-16T08:21:19;98235.38;;;24.21;70.14
13235;BME280;6683;48.506;9.050;2023-07-16T08:24:21;98231.03;;;24.35;69.57
13235;BME280;6683;48.506;9.050;2023-07-16T08:27:23;98245.03;;;24.42;68.89
13235;BME280;6683;48.506;9.050;2023-07-16T08:30:26;98244.22;;;24.46;67.76
13235;BME280;6683;48.506;9.050;2023-07-16T08:33:28;98247.16;;;24.50;67.66
13235;BME280;6683;48.506;9.050;2023-07-16T08:36:33;98262.53;;;24.54;67.35
13235;BME280;6683;48.506;9.050;2023-07-16T08:39:35;98259.03;;;24.59;66.91
13235;BME280;6683;48.506;9.050;2023-07-16T08:42:38;98254.41;;;24.70;66.86
13235;BME280;6683;48.506;9.050;2023-07-16T08:45:41;98252.50;;;24.80;66.39
13235;BME280;6683;48.506;9.050;2023-07-16T08:48:46;98241.66;;;24.85;65.82
13235;BME280;6683;48.506;9.050;2023-07-16T08:51:50;98245.19;;;24.91;65.97
13235;BME280;6683;48.506;9.050;2023-07-16T08:54:54;98241.91;;;24.94;65.92
13235;BME280;6683;48.506;9.050;2023-07-16T08:57:56;98254.28;;;25.05;66.09
13235;BME280;6683;48.506;9.050;2023-07-16T09:01:00;98257.47;;;25.17;65.46
13235;BME280;6683;48.506;9.050;2023-07-16T09:04:03;98266.25;;;25.32;64.96
13235;BME280;6683;48.506;9.050;2023-07-16T09:07:07;98262.97;;;25.51;64.98
13235;BME280;6683;48.506;9.050;2023-07-16T09:10:12;98263.66;;;25.66;63.85
13235;BME280;6683;48.506;9.050;2023-07-16T09:13:18;98270.09;;;25.70;63.86
13235;BME280;6683;48.506;9.050;2023-07-16T09:16:21;98266.47;;;25.85;63.44
13235;BME280;6683;48.506;9.050;2023-07-16T09:19:25;98257.47;;;25.94;62.75
13235;BME280;6683;48.506;9.050;2023-07-16T09:22:29;98262.50;;;26.11;62.95
13235;BME280;6683;48.506;9.050;2023-07-16T09:25:32;98248.47;;;26.33;62.41
13235;BME280;6683;48.506;9.050;2023-07-16T09:28:35;98257.56;;;26.47;62.31
13235;BME280;6683;48.506;9.050;2023-07-16T09:31:38;98259.91;;;26.53;61.27
13235;BME280;6683;48.506;9.050;2023-07-16T09:34:40;98262.56;;;26.58;61.50
13235;BME280;6683;48.506;9.050;2023-07-16T09:37:44;98252.50;;;26.64;60.99
13235;BME280;6683;48.506;9.050;2023-07-16T09:40:47;98249.16;;;26.72;60.44
13235;BME280;6683;48.506;9.050;2023-07-16T09:43:50;98248.22;;;26.81;60.64
13235;BME280;6683;48.506;9.050;2023-07-16T09:46:52;98241.28;;;26.94;60.87
13235;BME280;6683;48.506;9.050;2023-07-16T09:49:54;98241.63;;;27.11;60.29
13235;BME280;6683;48.506;9.050;2023-07-16T09:52:58;98248.06;;;27.15;60.02
13235;BME280;6683;48.506;9.050;2023-07-16T09:56:00;98251.66;;;27.29;60.09
13235;BME280;6683;48.506;9.050;2023-07-16T09:59:08;98247.13;;;27.43;59.50
13235;BME280;6683;48.506;9.050;2023-07-16T10:02:11;98233.34;;;27.58;58.58
13235;BME280;6683;48.506;9.050;2023-07-16T10:05:14;98237.84;;;27.68;58.13
13235;BME280;6683;48.506;9.050;2023-07-16T10:08:19;98239.75;;;27.81;57.68
13235;BME280;6683;48.506;9.050;2023-07-16T10:11:24;98245.63;;;27.88;57.18
13235;BME280;6683;48.506;9.050;2023-07-16T10:14:26;98240.94;;;27.75;56.64
13235;BME280;6683;48.506;9.050;2023-07-16T10:17:31;98241.56;;;27.72;57.43
13235;BME280;6683;48.506;9.050;2023-07-16T10:20:36;98241.59;;;27.86;57.28
13235;BME280;6683;48.506;9.050;2023-07-16T10:23:44;98238.59;;;28.06;57.48
13235;BME280;6683;48.506;9.050;2023-07-16T10:26:47;98226.44;;;28.30;56.95
13235;BME280;6683;48.506;9.050;2023-07-16T10:29:49;98226.94;;;28.46;55.56
13235;BME280;6683;48.506;9.050;2023-07-16T10:32:52;98229.16;;;28.44;55.20
13235;BME280;6683;48.506;9.050;2023-07-16T10:35:57;98236.69;;;28.33;55.84
13235;BME280;6683;48.506;9.050;2023-07-16T10:39:04;98222.84;;;28.35;56.32
13235;BME280;6683;48.506;9.050;2023-07-16T10:42:07;98235.00;;;28.51;56.27
13235;BME280;6683;48.506;9.050;2023-07-16T10:45:10;98229.09;;;28.63;56.20
13235;BME280;6683;48.506;9.050;2023-07-16T10:48:12;98228.50;;;28.66;55.67
13235;BME280;6683;48.506;9.050;2023-07-16T10:51:16;98227.19;;;28.63;54.67
13235;BME280;6683;48.506;9.050;2023-07-16T10:54:21;98234.81;;;28.75;55.30
13235;BME280;6683;48.506;9.050;2023-07-16T10:57:25;98232.94;;;28.89;54.73
13235;BME280;6683;48.506;9.050;2023-07-16T11:00:27;98227.28;;;28.99;54.22
13235;BME280;6683;48.506;9.050;2023-07-16T11:03:30;98235.72;;;29.25;53.26
13235;BME280;6683;48.506;9.050;2023-07-16T11:06:33;98233.94;;;29.42;52.64
13235;BME280;6683;48.506;9.050;2023-07-16T11:09:42;98231.53;;;29.41;52.33
13235;BME280;6683;48.506;9.050;2023-07-16T11:12:50;98229.31;;;29.43;52.18
13235;BME280;6683;48.506;9.050;2023-07-16T11:15:53;98224.97;;;29.42;52.07
13235;BME280;6683;48.506;9.050;2023-07-16T11:18:56;98226.09;;;29.41;51.90
13235;BME280;6683;48.506;9.050;2023-07-16T11:22:00;98222.31;;;29.50;52.32
13235;BME280;6683;48.506;9.050;2023-07-16T11:25:11;98212.13;;;29.56;52.37
13235;BME280;6683;48.506;9.050;2023-07-16T11:28:13;98218.28;;;29.48;51.51
13235;BME280;6683;48.506;9.050;2023-07-16T11:31:16;98216.50;;;29.43;51.27
13235;BME280;6683;48.506;9.050;2023-07-16T11:34:20;98215.06;;;29.46;51.32
13235;BME280;6683;48.506;9.050;2023-07-16T11:37:25;98216.59;;;29.52;50.19
13235;BME280;6683;48.506;9.050;2023-07-16T11:40:29;98212.44;;;29.54;50.56
13235;BME280;6683;48.506;9.050;2023-07-16T11:43:34;98204.81;;;29.65;50.68
13235;BME280;6683;48.506;9.050;2023-07-16T11:46:37;98210.25;;;29.78;50.63
13235;BME280;6683;48.506;9.050;2023-07-16T11:49:39;98210.97;;;29.92;50.49
13235;BME280;6683;48.506;9.050;2023-07-16T11:52:41;98207.53;;;30.09;50.24
13235;BME280;6683;48.506;9.050;2023-07-16T11:55:45;98194.94;;;30.22;49.97
13235;BME280;6683;48.506;9.050;2023-07-16T11:58:48;98192.59;;;30.29;49.37
13235;BME280;6683;48.506;9.050;2023-07-16T12:01:50;98189.44;;;30.35;49.53
13235;BME280;6683;48.506;9.050;2023-07-16T12:04:53;98190.59;;;30.43;49.26
13235;BME280;6683;48.506;9.050;2023-07-16T12:07:55;98176.66;;;30.53;49.38
13235;BME280;6683;48.506;9.050;2023-07-16T12:10:59;98175.75;;;30.66;48.68
13235;BME280;6683;48.506;9.050;2023-07-16T12:14:01;98172.25;;;30.74;48.19
13235;BME280;6683;48.506;9.050;2023-07-16T12:17:04;98178.16;;;30.67;47.56
13235;BME280;6683;48.506;9.050;2023-07-16T12:20:07;98173.16;;;30.61;47.08
13235;BME280;6683;48.506;9.050;2023-07-16T12:23:09;98169.78;;;30.55;47.61
13235;BME280;6683;48.506;9.050;2023-07-16T12:26:13;98164.38;;;30.64;47.52
13235;BME280;6683;48.506;9.050;2023-07-16T12:29:15;98158.75;;;30.69;47.65
13235;BME280;6683;48.506;9.050;2023-07-16T12:32:18;98152.53;;;30.68;46.98
13235;BME280;6683;48.506;9.050;2023-07-16T12:35:21;98151.06;;;30.71;46.66
13235;BME280;6683;48.506;9.050;2023-07-16T12:38:23;98147.72;;;30.74;47.16
13235;BME280;6683;48.506;9.050;2023-07-16T12:41:26;98146.09;;;30.82;47.24
13235;BME280;6683;48.506;9.050;2023-07-16T12:44:29;98146.00;;;30.87;46.77
13235;BME280;6683;48.506;9.050;2023-07-16T12:47:32;98144.56;;;30.98;47.61
13235;BME280;6683;48.506;9.050;2023-07-16T12:50:34;98141.69;;;31.11;47.32
13235;BME280;6683;48.506;9.050;2023-07-16T12:53:36;98144.41;;;31.20;46.84
13235;BME280;6683;48.506;9.050;2023-07-16T12:56:40;98138.94;;;31.20;46.42
13235;BME280;6683;48.506;9.050;2023-07-16T12:59:42;98139.56;;;31.25;46.67
13235;BME280;6683;48.506;9.050;2023-07-16T13:02:45;98137.81;;;31.38;47.06
13235;BME280;6683;48.506;9.050;2023-07-16T13:05:47;98140.69;;;31.59;46.51
13235;BME280;6683;48.506;9.050;2023-07-16T13:08:49;98135.06;;;31.72;46.59
13235;BME280;6683;48.506;9.050;2023-07-16T13:11:53;98135.19;;;31.76;46.13
13235;BME280;6683;48.506;9.050;2023-07-16T13:14:55;98129.09;;;31.79;46.40
13235;BME280;6683;48.506;9.050;2023-07-16T13:17:57;98140.50;;;31.81;46.09
13235;BME280;6683;48.506;9.050;2023-07-16T13:21:00;98130.41;;;31.73;46.05
13235;BME280;6683;48.506;9.050;2023-07-16T13:24:02;98126.69;;;31.77;45.93
13235;BME280;6683;48.506;9.050;2023-07-16T13:27:06;98115.13;;;31.80;46.00
13235;BME280;6683;48.506;9.050;2023-07-16T13:30:11;98114.97;;;31.85;46.18
13235;BME280;6683;48.506;9.050;2023-07-16T13:33:14;98100.63;;;31.88;46.04
13235;BME280;6683;48.506;9.050;2023-07-16T13:36:16;98101.44;;;31.89;45.97
13235;BME280;6683;48.506;9.050;2023-07-16T13:39:18;98104.97;;;31.89;46.07
13235;BME280;6683;48.506;9.050;2023-07-16T13:42:22;98106.22;;;31.92;45.99
13235;BME280;6683;48.506;9.050;2023-07-16T13:45:24;98104.19;;;31.97;45.84
13235;BME280;6683;48.506;9.050;2023-07-16T13:48:27;98104.50;;;31.96;45.70
13235;BME280;6683;48.506;9.050;2023-07-16T13:51:29;98113.66;;;31.91;46.09
13235;BME280;6683;48.506;9.050;2023-07-16T13:54:32;98117.25;;;31.75;45.56
13235;BME280;6683;48.506;9.050;2023-07-16T13:57:36;98108.28;;;31.57;45.23
13235;BME280;6683;48.506;9.050;2023-07-16T14:00:38;98113.75;;;31.40;45.99
13235;BME280;6683;48.506;9.050;2023-07-16T14:03:40;98114.56;;;31.23;45.92
13235;BME280;6683;48.506;9.050;2023-07-16T14:06:43;98115.22;;;31.12;46.51
13235;BME280;6683;48.506;9.050;2023-07-16T14:09:45;98118.28;;;31.02;46.59
13235;BME280;6683;48.506;9.050;2023-07-16T14:12:48;98117.13;;;30.94;46.44
13235;BME280;6683;48.506;9.050;2023-07-16T14:15:50;98116.16;;;30.90;46.23
13235;BME280;6683;48.506;9.050;2023-07-16T14:18:53;98114.56;;;30.89;46.40
13235;BME280;6683;48.506;9.050;2023-07-16T14:21:55;98105.88;;;30.78;46.23
13235;BME280;6683;48.506;9.050;2023-07-16T14:24:58;98110.03;;;30.67;46.10
13235;BME280;6683;48.506;9.050;2023-07-16T14:28:01;98104.56;;;30.59;46.59
13235;BME280;6683;48.506;9.050;2023-07-16T14:31:04;98100.72;;;30.60;46.92
13235;BME280;6683;48.506;9.050;2023-07-16T14:34:06;98105.03;;;30.61;46.40
13235;BME280;6683;48.506;9.050;2023-07-16T14:37:09;98098.78;;;30.60;46.45
13235;BME280;6683;48.506;9.050;2023-07-16T14:40:11;98105.38;;;30.68;46.71
13235;BME280;6683;48.506;9.050;2023-07-16T14:43:15;98103.44;;;30.77;46.38
13235;BME280;6683;48.506;9.050;2023-07-16T14:46:17;98102.72;;;30.94;47.08
13235;BME280;6683;48.506;9.050;2023-07-16T14:49:19;98102.69;;;31.11;47.20
13235;BME280;6683;48.506;9.050;2023-07-16T14:52:21;98103.34;;;31.25;46.86
13235;BME280;6683;48.506;9.050;2023-07-16T14:55:24;98096.59;;;31.31;46.50
13235;BME280;6683;48.506;9.050;2023-07-16T14:58:27;98094.97;;;31.30;46.28
13235;BME280;6683;48.506;9.050;2023-07-16T15:01:30;98090.19;;;31.27;46.08
13235;BME280;6683;48.506;9.050;2023-07-16T15:04:32;98090.00;;;31.15;45.83
13235;BME280;6683;48.506;9.050;2023-07-16T15:07:35;98079.63;;;31.00;46.09
13235;BME280;6683;48.506;9.050;2023-07-16T15:10:37;98076.72;;;30.88;46.19
13235;BME280;6683;48.506;9.050;2023-07-16T15:13:41;98082.31;;;30.74;46.12
13235;BME280;6683;48.506;9.050;2023-07-16T15:16:43;98074.91;;;30.57;46.24
13235;BME280;6683;48.506;9.050;2023-07-16T15:19:45;98083.03;;;30.40;46.16
13235;BME280;6683;48.506;9.050;2023-07-16T15:22:47;98087.78;;;30.26;46.29
13235;BME280;6683;48.506;9.050;2023-07-16T15:25:50;98091.09;;;30.15;46.57
13235;BME280;6683;48.506;9.050;2023-07-16T15:28:53;98089.00;;;30.03;46.56
13235;BME280;6683;48.506;9.050;2023-07-16T15:31:55;98089.28;;;29.93;46.51
13235;BME280;6683;48.506;9.050;2023-07-16T15:34:57;98081.41;;;29.83;46.76
13235;BME280;6683;48.506;9.050;2023-07-16T15:38:00;98078.94;;;29.73;47.22
13235;BME280;6683;48.506;9.050;2023-07-16T15:41:04;98083.50;;;29.64;47.28
13235;BME280;6683;48.506;9.050;2023-07-16T15:44:08;98075.63;;;29.54;47.35
13235;BME280;6683;48.506;9.050;2023-07-16T15:47:10;98071.56;;;29.43;47.61
13235;BME280;6683;48.506;9.050;2023-07-16T15:50:13;98068.78;;;29.34;47.91
13235;BME280;6683;48.506;9.050;2023-07-16T15:53:15;98072.75;;;29.28;47.95
13235;BME280;6683;48.506;9.050;2023-07-16T15:56:17;98079.91;;;29.24;48.20
13235;BME280;6683;48.506;9.050;2023-07-16T15:59:21;98077.13;;;29.15;48.01
13235;BME280;6683;48.506;9.050;2023-07-16T16:02:23;98081.06;;;29.09;48.13
13235;BME280;6683;48.506;9.050;2023-07-16T16:05:25;98080.56;;;29.07;48.35
13235;BME280;6683;48.506;9.050;2023-07-16T16:08:27;98077.03;;;29.07;48.41
13235;BME280;6683;48.506;9.050;2023-07-16T16:11:30;98070.00;;;29.06;48.89
13235;BME280;6683;48.506;9.050;2023-07-16T16:14:33;98075.88;;;28.99;48.70
13235;BME280;6683;48.506;9.050;2023-07-16T16:17:35;98071.97;;;28.92;48.24
13235;BME280;6683;48.506;9.050;2023-07-16T16:20:40;98065.84;;;28.86;48.45
13235;BME280;6683;48.506;9.050;2023-07-16T16:23:43;98063.44;;;28.85;48.64